sensor_id;sensor_type;location;lat;lon;timestamp;pressure;altitude;pressure_sealevel;temperature;humidity
29815;BME280;16708;50.426;7.664;2023-02-28T00:03:30;998.18;;;-0.08;100.00
29815;BME280;16708;50.426;7.664;2023-02-28T00:08:24;998.14;;;-0.24;100.00
29815;BME280;16708;50.426;7.664;2023-02-28T00:13:18;998.19;;;-0.34;100.00
29815;BME280;16708;50.426;7.664;2023-02-28T00:18:11;998.15;;;-0.52;100.00
29815;BME280;16708;50.426;7.664;2023-02-28T00:23:05;998.11;;;-0.67;100.00
29815;BME280;16708;50.426;7.664;2023-02-28T00:27:59;998.13;;;-0.77;100.00
29815;BME280;16708;50.426;7.664;2023-02-28T00:32:53;998.08;;;-0.86;100.00
29815;BME280;16708;50.426;7.664;2023-02-28T00:37:47;998.16;;;-0.98;100.00
29815;BME280;16708;50.426;7.664;2023-02-28T00:42:41;998.31;;;-1.23;100.00
29815;BME280;16708;50.426;7.664;2023-02-28T00:47:35;998.26;;;-1.29;100.00
29815;BME280;16708;50.426;7.664;2023-02-28T00:52:28;998.21;;;-1.16;100.00
29815;BME280;16708;50.426;7.664;2023-02-28T00:57:20;998.28;;;-1.29;100.00
29815;BME280;16708;50.426;7.664;2023-02-28T01:02:15;998.21;;;-1.42;100.00
29815;BME280;16708;50.426;7.664;2023-02-28T01:07:09;998.26;;;-1.32;100.00
29815;BME280;16708;50.426;7.664;2023-02-28T01:12:03;998.22;;;-1.42;100.00
29815;BME280;16708;50.426;7.664;2023-02-28T01:16:57;998.22;;;-1.45;100.00
29815;BME280;16708;50.426;7.664;2023-02-28T01:21:51;998.22;;;-1.59;100.00
29815;BME280;16708;50.426;7.664;2023-02-28T01:26:45;998.14;;;-1.57;100.00
29815;BME280;16708;50.426;7.664;2023-02-28T01:31:38;998.08;;;-1.67;100.00
29815;BME280;16708;50.426;7.664;2023-02-28T01:36:32;998.11;;;-1.76;100.00
29815;BME280;16708;50.426;7.664;2023-02-28T01:41:26;998.19;;;-1.78;100.00
29815;BME280;16708;50.426;7.664;2023-02-28T01:46:20;998.19;;;-1.83;100.00
29815;BME280;16708;50.426;7.664;2023-02-28T01:51:14;998.20;;;-1.96;100.00
29815;BME280;16708;50.426;7.664;2023-02-28T01:56:09;998.12;;;-1.85;100.00
29815;BME280;16708;50.426;7.664;2023-02-28T02:01:03;998.10;;;-1.82;100.00
29815;BME280;16708;50.426;7.664;2023-02-28T02:06:02;998.06;;;-1.60;100.00
29815;BME280;16708;50.426;7.664;2023-02-28T02:10:49;997.99;;;-1.43;100.00
29815;BME280;16708;50.426;7.664;2023-02-28T02:35:20;997.81;;;-1.57;100.00
29815;BME280;16708;50.426;7.664;2023-02-28T02:40:14;997.85;;;-1.79;100.00
29815;BME280;16708;50.426;7.664;2023-02-28T02:45:08;997.93;;;-1.97;100.00
29815;BME280;16708;50.426;7.664;2023-02-28T02:50:02;997.94;;;-2.15;100.00
29815;BME280;16708;50.426;7.664;2023-02-28T02:54:56;997.93;;;-2.18;100.00
29815;BME280;16708;50.426;7.664;2023-02-28T02:59:49;998.01;;;-2.26;100.00
29815;BME280;16708;50.426;7.664;2023-02-28T03:04:44;998.04;;;-2.36;100.00
29815;BME280;16708;50.426;7.664;2023-02-28T03:09:38;998.05;;;-2.45;100.00
29815;BME280;16708;50.426;7.664;2023-02-28T03:19:24;997.96;;;-2.71;100.00
29815;BME280;16708;50.426;7.664;2023-02-28T03:24:17;997.96;;;-2.76;100.00
29815;BME280;16708;50.426;7.664;2023-02-28T03:29:11;997.94;;;-2.81;100.00
29815;BME280;16708;50.426;7.664;2023-02-28T03:34:06;997.93;;;-2.85;100.00
29815;BME280;16708;50.426;7.664;2023-02-28T03:39:00;997.96;;;-2.86;100.00
29815;BME280;16708;50.426;7.664;2023-02-28T03:43:54;997.98;;;-2.97;100.00
29815;BME280;16708;50.426;7.664;2023-02-28T03:48:48;997.91;;;-2.87;100.00
29815;BME280;16708;50.426;7.664;2023-02-28T03:53:46;997.96;;;-2.95;100.00
29815;BME280;16708;50.426;7.664;2023-02-28T03:58:36;997.88;;;-3.00;100.00
29815;BME280;16708;50.426;7.664;2023-02-28T04:03:30;997.93;;;-3.00;100.00
29815;BME280;16708;50.426;7.664;2023-02-28T04:08:24;997.95;;;-3.11;100.00
29815;BME280;16708;50.426;7.664;2023-02-28T04:13:18;997.94;;;-3.18;100.00
29815;BME280;16708;50.426;7.664;2023-02-28T04:18:11;997.92;;;-3.37;100.00
29815;BME280;16708;50.426;7.664;2023-02-28T04:23:05;997.98;;;-3.44;100.00
29815;BME280;16708;50.426;7.664;2023-02-28T04:27:58;997.98;;;-3.53;100.00
29815;BME280;16708;50.426;7.664;2023-02-28T04:32:52;997.98;;;-3.59;100.00
29815;BME280;16708;50.426;7.664;2023-02-28T04:37:46;998.01;;;-3.60;100.00
29815;BME280;16708;50.426;7.664;2023-02-28T04:42:38;998.01;;;-3.67;100.00
29815;BME280;16708;50.426;7.664;2023-02-28T04:47:32;998.04;;;-3.79;100.00
29815;BME280;16708;50.426;7.664;2023-02-28T04:52:26;998.12;;;-3.89;100.00
29815;BME280;16708;50.426;7.664;2023-02-28T04:57:20;998.02;;;-3.94;100.00
29815;BME280;16708;50.426;7.664;2023-02-28T05:02:13;998.11;;;-3.94;100.00
29815;BME280;16708;50.426;7.664;2023-02-28T05:07:07;998.13;;;-3.94;100.00
29815;BME280;16708;50.426;7.664;2023-02-28T05:12:02;998.15;;;-4.07;100.00
29815;BME280;16708;50.426;7.664;2023-02-28T05:16:54;998.13;;;-4.12;100.00
29815;BME280;16708;50.426;7.664;2023-02-28T05:21:50;998.18;;;-4.21;100.00
29815;BME280;16708;50.426;7.664;2023-02-28T05:26:40;998.21;;;-4.20;100.00
29815;BME280;16708;50.426;7.664;2023-02-28T05:31:34;998.17;;;-4.07;100.00
29815;BME280;16708;50.426;7.664;2023-02-28T05:36:29;998.25;;;-4.04;100.00
29815;BME280;16708;50.426;7.664;2023-02-28T05:41:23;998.24;;;-4.06;100.00
29815;BME280;16708;50.426;7.664;2023-02-28T05:46:17;998.21;;;-4.18;100.00
29815;BME280;16708;50.426;7.664;2023-02-28T05:51:08;998.17;;;-4.22;100.00
29815;BME280;16708;50.426;7.664;2023-02-28T05:56:02;998.25;;;-4.17;100.00
29815;BME280;16708;50.426;7.664;2023-02-28T06:00:56;998.23;;;-4.14;100.00
29815;BME280;16708;50.426;7.664;2023-02-28T06:05:50;998.24;;;-4.07;100.00
29815;BME280;16708;50.426;7.664;2023-02-28T06:10:45;998.21;;;-3.99;100.00
29815;BME280;16708;50.426;7.664;2023-02-28T06:15:39;998.19;;;-3.91;100.00
29815;BME280;16708;50.426;7.664;2023-02-28T06:20:33;998.35;;;-3.89;100.00
29815;BME280;16708;50.426;7.664;2023-02-28T06:25:27;998.34;;;-3.88;100.00
29815;BME280;16708;50.426;7.664;2023-02-28T06:30:21;998.40;;;-3.72;100.00
29815;BME280;16708;50.426;7.664;2023-02-28T06:35:14;998.45;;;-3.56;100.00
29815;BME280;16708;50.426;7.664;2023-02-28T06:40:09;998.48;;;-3.49;100.00
29815;BME280;16708;50.426;7.664;2023-02-28T06:45:03;998.47;;;-3.21;100.00
29815;BME280;16708;50.426;7.664;2023-02-28T06:49:56;998.54;;;-3.23;100.00
29815;BME280;16708;50.426;7.664;2023-02-28T06:54:50;998.53;;;-3.28;100.00
29815;BME280;16708;50.426;7.664;2023-02-28T06:59:44;998.65;;;-3.32;100.00
29815;BME280;16708;50.426;7.664;2023-02-28T07:04:37;998.68;;;-3.29;100.00
29815;BME280;16708;50.426;7.664;2023-02-28T07:09:32;998.66;;;-3.22;100.00
29815;BME280;16708;50.426;7.664;2023-02-28T07:14:26;998.75;;;-3.18;100.00
29815;BME280;16708;50.426;7.664;2023-02-28T07:19:20;998.77;;;-3.05;100.00
29815;BME280;16708;50.426;7.664;2023-02-28T07:24:14;998.72;;;-2.88;100.00
29815;BME280;16708;50.426;7.664;2023-02-28T07:29:07;998.72;;;-2.65;100.00
29815;BME280;16708;50.426;7.664;2023-02-28T07:34:02;998.77;;;-2.46;100.00
29815;BME280;16708;50.426;7.664;2023-02-28T07:38:56;998.82;;;-2.25;100.00
29815;BME280;16708;50.426;7.664;2023-02-28T07:43:50;998.83;;;-1.44;100.00
29815;BME280;16708;50.426;7.664;2023-02-28T07:48:43;998.79;;;-1.25;100.00
29815;BME280;16708;50.426;7.664;2023-02-28T07:53:37;998.76;;;-1.10;100.00
29815;BME280;16708;50.426;7.664;2023-02-28T07:58:47;998.71;;;-0.50;100.00
29815;BME280;16708;50.426;7.664;2023-02-28T08:03:26;998.66;;;0.09;100.00
29815;BME280;16708;50.426;7.664;2023-02-28T08:08:20;998.59;;;0.56;100.00
29815;BME280;16708;50.426;7.664;2023-02-28T08:13:10;998.52;;;0.65;88.90
29815;BME280;16708;50.426;7.664;2023-02-28T08:18:04;998.51;;;0.97;76.05
29815;BME280;16708;50.426;7.664;2023-02-28T08:22:58;998.50;;;1.51;66.39
29815;BME280;16708;50.426;7.664;2023-02-28T08:27:51;998.48;;;1.99;62.17
29815;BME280;16708;50.426;7.664;2023-02-28T08:32:46;998.53;;;1.93;58.33
29815;BME280;16708;50.426;7.664;2023-02-28T08:37:40;998.58;;;2.10;56.62
29815;BME280;16708;50.426;7.664;2023-02-28T08:42:35;998.47;;;2.58;55.08
29815;BME280;16708;50.426;7.664;2023-02-28T08:47:29;998.55;;;2.25;55.54
29815;BME280;16708;50.426;7.664;2023-02-28T08:52:23;998.57;;;2.18;54.68
29815;BME280;16708;50.426;7.664;2023-02-28T08:57:17;998.60;;;2.25;55.49
29815;BME280;16708;50.426;7.664;2023-02-28T09:02:10;998.55;;;2.11;52.86
29815;BME280;16708;50.426;7.664;2023-02-28T09:07:04;998.59;;;2.27;52.35
29815;BME280;16708;50.426;7.664;2023-02-28T09:11:59;998.62;;;2.81;51.49
29815;BME280;16708;50.426;7.664;2023-02-28T09:16:54;998.56;;;5.15;44.61
29815;BME280;16708;50.426;7.664;2023-02-28T09:21:50;998.43;;;6.69;40.22
29815;BME280;16708;50.426;7.664;2023-02-28T09:26:45;998.51;;;6.80;39.15
29815;BME280;16708;50.426;7.664;2023-02-28T09:31:41;998.48;;;9.29;35.02
29815;BME280;16708;50.426;7.664;2023-02-28T09:36:39;998.46;;;7.63;35.28
29815;BME280;16708;50.426;7.664;2023-02-28T09:41:30;998.60;;;8.01;35.34
29815;BME280;16708;50.426;7.664;2023-02-28T09:46:25;998.60;;;8.66;33.61
29815;BME280;16708;50.426;7.664;2023-02-28T09:56:12;998.58;;;8.51;33.41
29815;BME280;16708;50.426;7.664;2023-02-28T10:01:06;998.51;;;8.67;32.83
29815;BME280;16708;50.426;7.664;2023-02-28T10:06:01;998.51;;;9.76;31.10
29815;BME280;16708;50.426;7.664;2023-02-28T10:10:56;998.58;;;10.49;30.45
29815;BME280;16708;50.426;7.664;2023-02-28T10:15:51;998.63;;;9.38;31.52
29815;BME280;16708;50.426;7.664;2023-02-28T10:25:40;998.56;;;10.50;30.56
29815;BME280;16708;50.426;7.664;2023-02-28T10:30:35;998.52;;;11.96;27.94
29815;BME280;16708;50.426;7.664;2023-02-28T10:35:30;998.67;;;9.26;31.44
29815;BME280;16708;50.426;7.664;2023-02-28T10:40:23;998.56;;;7.49;34.03
29815;BME280;16708;50.426;7.664;2023-02-28T10:45:17;998.55;;;5.02;38.37
29815;BME280;16708;50.426;7.664;2023-02-28T11:04:48;998.50;;;7.97;34.21
29815;BME280;16708;50.426;7.664;2023-02-28T11:09:44;998.41;;;10.00;31.46
29815;BME280;16708;50.426;7.664;2023-02-28T11:14:41;998.38;;;11.97;28.58
29815;BME280;16708;50.426;7.664;2023-02-28T11:19:37;998.32;;;11.79;27.21
29815;BME280;16708;50.426;7.664;2023-02-28T11:24:32;998.42;;;11.72;27.95
29815;BME280;16708;50.426;7.664;2023-02-28T11:29:28;998.29;;;11.43;28.25
29815;BME280;16708;50.426;7.664;2023-02-28T11:34:22;998.32;;;12.49;27.36
29815;BME280;16708;50.426;7.664;2023-02-28T11:39:16;998.29;;;13.46;25.82
29815;BME280;16708;50.426;7.664;2023-02-28T11:49:05;998.36;;;12.92;26.12
29815;BME280;16708;50.426;7.664;2023-02-28T11:58:54;998.26;;;12.61;25.70
29815;BME280;16708;50.426;7.664;2023-02-28T12:08:42;998.22;;;12.19;26.60
29815;BME280;16708;50.426;7.664;2023-02-28T12:18:29;998.24;;;11.72;26.32
29815;BME280;16708;50.426;7.664;2023-02-28T12:28:17;998.18;;;13.43;24.02
29815;BME280;16708;50.426;7.664;2023-02-28T12:33:11;998.16;;;14.09;25.40
29815;BME280;16708;50.426;7.664;2023-02-28T12:38:05;998.16;;;14.39;23.98
29815;BME280;16708;50.426;7.664;2023-02-28T12:43:00;998.17;;;13.86;24.04
29815;BME280;16708;50.426;7.664;2023-02-28T12:47:54;998.15;;;14.04;23.73
29815;BME280;16708;50.426;7.664;2023-02-28T12:52:48;998.06;;;13.51;24.31
29815;BME280;16708;50.426;7.664;2023-02-28T12:57:43;997.98;;;14.14;23.79
29815;BME280;16708;50.426;7.664;2023-02-28T13:07:31;997.93;;;13.90;23.67
29815;BME280;16708;50.426;7.664;2023-02-28T13:12:26;997.90;;;14.52;23.15
29815;BME280;16708;50.426;7.664;2023-02-28T13:17:20;997.93;;;14.62;23.02
29815;BME280;16708;50.426;7.664;2023-02-28T13:22:14;997.84;;;14.96;22.27
29815;BME280;16708;50.426;7.664;2023-02-28T13:36:55;997.82;;;14.20;23.76
29815;BME280;16708;50.426;7.664;2023-02-28T14:01:25;997.80;;;14.89;25.11
29815;BME280;16708;50.426;7.664;2023-02-28T14:06:18;997.70;;;13.94;24.72
29815;BME280;16708;50.426;7.664;2023-02-28T14:11:13;997.83;;;15.00;22.87
29815;BME280;16708;50.426;7.664;2023-02-28T14:16:07;997.77;;;13.90;24.20
29815;BME280;16708;50.426;7.664;2023-02-28T14:30:46;997.63;;;15.99;24.09
29815;BME280;16708;50.426;7.664;2023-02-28T14:35:41;997.65;;;12.97;27.29
29815;BME280;16708;50.426;7.664;2023-02-28T14:40:33;997.64;;;15.32;23.13
29815;BME280;16708;50.426;7.664;2023-02-28T14:45:27;997.56;;;15.14;24.52
29815;BME280;16708;50.426;7.664;2023-02-28T14:50:21;997.65;;;15.46;23.65
29815;BME280;16708;50.426;7.664;2023-02-28T14:55:16;997.61;;;14.72;24.37
29815;BME280;16708;50.426;7.664;2023-02-28T15:09:58;997.44;;;14.62;24.00
29815;BME280;16708;50.426;7.664;2023-02-28T15:14:52;997.49;;;15.27;23.80
29815;BME280;16708;50.426;7.664;2023-02-28T15:19:46;997.59;;;13.62;25.22
29815;BME280;16708;50.426;7.664;2023-02-28T15:24:41;997.54;;;13.20;25.29
29815;BME280;16708;50.426;7.664;2023-02-28T15:29:34;997.54;;;13.56;25.16
29815;BME280;16708;50.426;7.664;2023-02-28T15:44:17;997.52;;;13.08;26.58
29815;BME280;16708;50.426;7.664;2023-02-28T15:49:11;997.40;;;10.82;29.11
29815;BME280;16708;50.426;7.664;2023-02-28T15:58:57;997.50;;;11.55;29.56
29815;BME280;16708;50.426;7.664;2023-02-28T16:08:46;997.51;;;10.21;29.96
29815;BME280;16708;50.426;7.664;2023-02-28T16:13:40;997.63;;;9.66;31.46
29815;BME280;16708;50.426;7.664;2023-02-28T16:18:33;997.50;;;10.91;30.04
29815;BME280;16708;50.426;7.664;2023-02-28T16:23:26;997.62;;;9.35;31.93
29815;BME280;16708;50.426;7.664;2023-02-28T16:28:19;997.54;;;10.10;30.22
29815;BME280;16708;50.426;7.664;2023-02-28T16:33:13;997.65;;;9.25;32.30
29815;BME280;16708;50.426;7.664;2023-02-28T16:38:07;997.60;;;8.99;33.04
29815;BME280;16708;50.426;7.664;2023-02-28T16:43:01;997.69;;;6.58;36.33
29815;BME280;16708;50.426;7.664;2023-02-28T16:47:54;997.78;;;5.61;39.33
29815;BME280;16708;50.426;7.664;2023-02-28T16:52:47;997.83;;;5.13;40.47
29815;BME280;16708;50.426;7.664;2023-02-28T16:57:39;997.78;;;4.71;41.51
29815;BME280;16708;50.426;7.664;2023-02-28T17:02:33;997.95;;;4.27;43.45
29815;BME280;16708;50.426;7.664;2023-02-28T17:12:20;997.92;;;3.90;45.32
29815;BME280;16708;50.426;7.664;2023-02-28T17:17:14;997.97;;;3.67;46.64
29815;BME280;16708;50.426;7.664;2023-02-28T17:22:08;997.98;;;3.34;48.51
29815;BME280;16708;50.426;7.664;2023-02-28T17:27:02;998.12;;;3.11;49.77
29815;BME280;16708;50.426;7.664;2023-02-28T17:31:56;998.22;;;2.83;50.78
29815;BME280;16708;50.426;7.664;2023-02-28T17:36:50;998.34;;;2.58;58.59
29815;BME280;16708;50.426;7.664;2023-02-28T17:41:44;998.35;;;2.36;57.86
29815;BME280;16708;50.426;7.664;2023-02-28T17:46:37;998.43;;;2.10;57.13
29815;BME280;16708;50.426;7.664;2023-02-28T17:51:31;998.38;;;2.07;58.34
29815;BME280;16708;50.426;7.664;2023-02-28T17:56:25;998.45;;;1.96;58.99
29815;BME280;16708;50.426;7.664;2023-02-28T18:01:19;998.47;;;1.89;59.53
29815;BME280;16708;50.426;7.664;2023-02-28T18:06:13;998.54;;;1.75;62.80
29815;BME280;16708;50.426;7.664;2023-02-28T18:11:05;998.51;;;1.63;63.46
29815;BME280;16708;50.426;7.664;2023-02-28T18:15:59;998.48;;;1.45;67.59
29815;BME280;16708;50.426;7.664;2023-02-28T18:20:52;998.51;;;1.27;68.20
29815;BME280;16708;50.426;7.664;2023-02-28T18:25:46;998.53;;;1.13;73.79
29815;BME280;16708;50.426;7.664;2023-02-28T18:30:39;998.50;;;0.93;76.64
29815;BME280;16708;50.426;7.664;2023-02-28T18:35:32;998.56;;;0.83;80.83
29815;BME280;16708;50.426;7.664;2023-02-28T18:40:26;998.46;;;0.65;79.81
29815;BME280;16708;50.426;7.664;2023-02-28T18:45:20;998.54;;;0.59;85.75
29815;BME280;16708;50.426;7.664;2023-02-28T18:50:14;998.55;;;0.40;87.67
29815;BME280;16708;50.426;7.664;2023-02-28T18:55:08;998.50;;;0.37;90.32
29815;BME280;16708;50.426;7.664;2023-02-28T19:00:02;998.51;;;0.28;91.75
29815;BME280;16708;50.426;7.664;2023-02-28T19:04:56;998.55;;;0.23;90.36
29815;BME280;16708;50.426;7.664;2023-02-28T19:09:50;998.51;;;0.21;91.53
29815;BME280;16708;50.426;7.664;2023-02-28T19:14:45;998.53;;;-0.03;92.69
29815;BME280;16708;50.426;7.664;2023-02-28T19:19:36;998.52;;;-0.05;91.61
29815;BME280;16708;50.426;7.664;2023-02-28T19:24:30;998.61;;;-0.21;93.45
29815;BME280;16708;50.426;7.664;2023-02-28T19:29:23;998.54;;;-0.46;100.00
29815;BME280;16708;50.426;7.664;2023-02-28T19:34:16;998.52;;;-0.52;100.00
29815;BME280;16708;50.426;7.664;2023-02-28T19:39:11;998.47;;;-0.60;99.97
29815;BME280;16708;50.426;7.664;2023-02-28T19:44:03;998.55;;;-0.54;98.70
29815;BME280;16708;50.426;7.664;2023-02-28T19:48:57;998.61;;;-0.52;96.54
29815;BME280;16708;50.426;7.664;2023-02-28T19:53:50;998.62;;;-0.57;97.89
29815;BME280;16708;50.426;7.664;2023-02-28T19:58:44;998.66;;;-0.59;100.00
29815;BME280;16708;50.426;7.664;2023-02-28T20:03:36;998.68;;;-0.62;100.00
29815;BME280;16708;50.426;7.664;2023-02-28T20:08:30;998.71;;;-0.77;100.00
29815;BME280;16708;50.426;7.664;2023-02-28T20:13:25;998.64;;;-0.80;100.00
29815;BME280;16708;50.426;7.664;2023-02-28T20:18:19;998.58;;;-0.93;100.00
29815;BME280;16708;50.426;7.664;2023-02-28T20:23:12;998.58;;;-0.85;100.00
29815;BME280;16708;50.426;7.664;2023-02-28T20:28:06;998.51;;;-1.09;100.00
29815;BME280;16708;50.426;7.664;2023-02-28T20:33:00;998.58;;;-1.25;100.00
29815;BME280;16708;50.426;7.664;2023-02-28T20:37:57;998.56;;;-1.15;100.00
29815;BME280;16708;50.426;7.664;2023-02-28T20:42:43;998.52;;;-1.18;100.00
29815;BME280;16708;50.426;7.664;2023-02-28T20:47:37;998.60;;;-1.16;100.00
29815;BME280;16708;50.426;7.664;2023-02-28T20:52:30;998.57;;;-1.19;100.00
29815;BME280;16708;50.426;7.664;2023-02-28T20:57:24;998.60;;;-1.22;100.00
29815;BME280;16708;50.426;7.664;2023-02-28T21:02:14;998.49;;;-1.23;100.00
29815;BME280;16708;50.426;7.664;2023-02-28T21:07:08;998.41;;;-1.23;100.00
29815;BME280;16708;50.426;7.664;2023-02-28T21:12:01;998.39;;;-1.15;100.00
29815;BME280;16708;50.426;7.664;2023-02-28T21:16:54;998.35;;;-1.04;100.00
29815;BME280;16708;50.426;7.664;2023-02-28T21:21:47;998.40;;;-0.91;100.00
29815;BME280;16708;50.426;7.664;2023-02-28T21:26:40;998.38;;;-0.96;100.00
29815;BME280;16708;50.426;7.664;2023-02-28T21:31:33;998.40;;;-0.99;100.00
29815;BME280;16708;50.426;7.664;2023-02-28T21:36:25;998.38;;;-1.00;100.00
29815;BME280;16708;50.426;7.664;2023-02-28T21:41:17;998.40;;;-0.99;100.00
29815;BME280;16708;50.426;7.664;2023-02-28T21:46:11;998.41;;;-0.92;100.00
29815;BME280;16708;50.426;7.664;2023-02-28T21:51:05;998.39;;;-0.91;100.00
29815;BME280;16708;50.426;7.664;2023-02-28T21:55:57;998.35;;;-0.83;100.00
29815;BME280;16708;50.426;7.664;2023-02-28T22:00:49;998.31;;;-0.83;100.00
29815;BME280;16708;50.426;7.664;2023-02-28T22:05:43;998.33;;;-0.91;100.00
29815;BME280;16708;50.426;7.664;2023-02-28T22:10:36;998.29;;;-0.98;100.00
29815;BME280;16708;50.426;7.664;2023-02-28T22:15:29;998.44;;;-1.12;100.00
29815;BME280;16708;50.426;7.664;2023-02-28T22:20:20;998.49;;;-1.15;100.00
29815;BME280;16708;50.426;7.664;2023-02-28T22:25:11;998.52;;;-1.18;100.00
29815;BME280;16708;50.426;7.664;2023-02-28T22:30:02;998.57;;;-1.13;100.00
29815;BME280;16708;50.426;7.664;2023-02-28T22:34:56;998.52;;;-1.10;100.00
29815;BME280;16708;50.426;7.664;2023-02-28T22:39:46;998.53;;;-1.08;100.00
29815;BME280;16708;50.426;7.664;2023-02-28T22:44:39;998.40;;;-0.99;100.00
29815;BME280;16708;50.426;7.664;2023-02-28T22:49:31;998.56;;;-0.90;100.00
29815;BME280;16708;50.426;7.664;2023-02-28T22:54:24;998.56;;;-0.94;100.00
29815;BME280;16708;50.426;7.664;2023-02-28T22:59:17;998.58;;;-0.97;100.00
29815;BME280;16708;50.426;7.664;2023-02-28T23:04:12;998.55;;;-1.02;100.00
29815;BME280;16708;50.426;7.664;2023-02-28T23:09:04;998.57;;;-1.13;100.00
29815;BME280;16708;50.426;7.664;2023-02-28T23:13:58;998.61;;;-1.31;100.00
29815;BME280;16708;50.426;7.664;2023-02-28T23:18:51;998.61;;;-1.53;100.00
29815;BME280;16708;50.426;7.664;2023-02-28T23:23:44;998.67;;;-1.58;100.00
29815;BME280;16708;50.426;7.664;2023-02-28T23:28:38;998.72;;;-1.76;100.00
29815;BME280;16708;50.426;7.664;2023-02-28T23:33:32;998.74;;;-1.75;100.00
29815;BME280;16708;50.426;7.664;2023-02-28T23:38:25;998.66;;;-1.92;100.00
29815;BME280;16708;50.426;7.664;2023-02-28T23:43:19;998.62;;;-1.96;100.00
29815;BME280;16708;50.426;7.664;2023-02-28T23:48:10;998.64;;;-2.11;100.00
29815;BME280;16708;50.426;7.664;2023-02-28T23:53:04;998.44;;;-1.97;100.00
29815;BME280;16708;50.426;7.664;2023-02-28T23:57:58;998.39;;;-1.83;100.00
